Time;durP1;ratioP1;P1;durP2;ratioP2;P2;SDS_P1;SDS_P2;PMS_P1;PMS_P2;Temp;Humidity;BMP_temperature;BMP_pressure;BME280_temperature;BME280_humidity;BME280_pressure;Samples;Min_cycle;Max_cycle;Signal;HPM_P1;HPM_P2
2021/08/14 00:02:11;;;;;;;3.90;2.65;;;22.50;60.10;;;;;;5113071;28;20696;-66
2021/08/14 00:04:37;;;;;;;4.03;2.47;;;22.50;60.80;;;;;;5112796;28;20197;-66
2021/08/14 00:07:03;;;;;;;3.63;1.90;;;22.50;60.10;;;;;;5112304;28;20181;-66
2021/08/14 00:09:29;;;;;;;4.00;2.20;;;22.50;60.20;;;;;;5112909;28;20197;-66
2021/08/14 00:11:54;;;;;;;3.65;2.35;;;22.40;60.00;;;;;;5112855;28;20292;-67
2021/08/14 00:14:20;;;;;;;3.60;2.30;;;22.40;60.00;;;;;;5112060;28;20169;-66
2021/08/14 00:16:45;;;;;;;3.42;2.33;;;22.40;60.00;;;;;;5112799;28;20199;-66
2021/08/14 00:19:11;;;;;;;3.88;2.60;;;22.40;60.00;;;;;;5112706;28;20180;-66
2021/08/14 00:21:36;;;;;;;4.63;2.22;;;22.40;60.10;;;;;;5111686;28;20663;-66
2021/08/14 00:24:02;;;;;;;4.50;2.40;;;22.40;60.10;;;;;;5112655;28;20691;-65
2021/08/14 00:26:27;;;;;;;4.95;2.28;;;22.40;60.10;;;;;;5112603;28;20208;-68
2021/08/14 00:28:53;;;;;;;4.78;2.50;;;22.40;60.00;;;;;;5112121;28;20525;-66
2021/08/14 00:31:18;;;;;;;3.78;2.30;;;22.40;60.00;;;;;;5112802;28;20195;-67
2021/08/14 00:33:44;;;;;;;4.10;2.55;;;22.40;60.10;;;;;;5112466;28;20310;-67
2021/08/14 00:36:09;;;;;;;3.53;2.38;;;22.40;60.10;;;;;;5111833;28;20214;-67
2021/08/14 00:38:35;;;;;;;3.70;2.40;;;22.40;60.10;;;;;;5112575;28;20177;-68
2021/08/14 00:41:01;;;;;;;3.97;2.22;;;22.40;60.20;;;;;;5112012;28;20169;-67
2021/08/14 00:43:26;;;;;;;2.97;1.83;;;22.40;60.20;;;;;;5112516;28;20169;-67
2021/08/14 00:45:55;;;;;;;3.30;2.35;;;22.40;60.20;;;;;;5112660;28;20177;-67
2021/08/14 00:48:21;;;;;;;2.75;2.15;;;22.40;60.20;;;;;;5075759;28;20169;-66
2021/08/14 00:50:46;;;;;;;3.28;2.25;;;22.40;60.20;;;;;;5112362;28;20197;-66
2021/08/14 00:53:12;;;;;;;4.38;2.58;;;22.40;60.10;;;;;;5112625;28;20247;-66
2021/08/14 00:55:37;;;;;;;3.47;2.42;;;22.30;60.00;;;;;;5111305;28;20276;-67
2021/08/14 00:58:03;;;;;;;3.95;2.53;;;22.30;60.10;;;;;;5094193;28;20173;-66
2021/08/14 01:00:28;;;;;;;3.20;2.38;;;22.30;60.00;;;;;;5112123;28;20169;-67
2021/08/14 01:02:55;;;;;;;3.10;2.45;;;22.30;60.10;;;;;;5111530;28;20256;-67
2021/08/14 01:05:21;;;;;;;3.03;2.30;;;22.30;60.10;;;;;;5111948;28;20184;-66
2021/08/14 01:07:48;;;;;;;4.00;2.20;;;22.30;60.10;;;;;;5112138;28;20636;-67
2021/08/14 01:10:13;;;;;;;5.20;2.47;;;22.30;60.20;;;;;;5111698;28;20181;-66
2021/08/14 01:12:40;;;;;;;3.28;2.40;;;22.30;60.10;;;;;;5111979;28;20220;-67
2021/08/14 01:15:06;;;;;;;3.38;2.28;;;22.30;60.20;;;;;;5094249;28;20173;-66
2021/08/14 01:17:31;;;;;;;2.83;2.50;;;22.30;60.10;;;;;;5111149;28;20177;-67
2021/08/14 01:19:57;;;;;;;2.53;2.28;;;22.30;60.10;;;;;;5077096;28;20177;-65
2021/08/14 01:22:22;;;;;;;4.47;2.78;;;22.30;60.10;;;;;;5111914;28;20270;-66
2021/08/14 01:24:48;;;;;;;4.10;2.40;;;22.30;60.20;;;;;;5111687;28;20177;-66
2021/08/14 01:27:14;;;;;;;3.80;2.38;;;22.30;60.20;;;;;;5112266;28;20631;-66
2021/08/14 01:29:40;;;;;;;3.85;2.38;;;22.30;60.20;;;;;;5111925;28;20177;-66
2021/08/14 01:32:06;;;;;;;3.25;2.30;;;22.30;60.20;;;;;;5111229;28;20673;-66
2021/08/14 01:34:31;;;;;;;3.70;2.60;;;22.30;60.30;;;;;;5111941;28;20177;-67
2021/08/14 01:36:57;;;;;;;4.55;2.63;;;22.30;60.30;;;;;;5112100;28;20169;-67
2021/08/14 01:39:22;;;;;;;4.35;2.40;;;22.30;60.20;;;;;;5111272;28;20173;-67
2021/08/14 01:41:58;;;;;;;3.78;2.70;;;22.30;60.20;;;;;;5112131;28;20265;-67
2021/08/14 01:44:24;;;;;;;4.70;2.60;;;22.30;60.40;;;;;;5110980;28;20195;-67
2021/08/14 01:46:49;;;;;;;3.03;2.28;;;22.20;60.30;;;;;;5111893;28;20173;-67
2021/08/14 01:49:15;;;;;;;3.47;2.30;;;22.20;60.20;;;;;;5112102;28;20213;-67
2021/08/14 01:51:40;;;;;;;3.50;2.17;;;22.20;60.30;;;;;;5110909;28;20612;-66
2021/08/14 01:54:06;;;;;;;3.92;2.45;;;22.20;60.40;;;;;;5112061;28;20188;-67
2021/08/14 01:56:32;;;;;;;3.25;2.58;;;22.20;60.50;;;;;;5111662;28;20176;-66
2021/08/14 01:58:57;;;;;;;3.65;2.35;;;22.20;60.40;;;;;;5111093;28;20170;-67
2021/08/14 02:01:23;;;;;;;3.72;2.35;;;22.20;60.40;;;;;;5115035;28;20173;-67
2021/08/14 02:03:49;;;;;;;3.83;2.20;;;22.20;60.40;;;;;;5115562;28;20177;-67
2021/08/14 02:06:15;;;;;;;3.92;2.50;;;22.20;60.50;;;;;;5114807;28;20180;-66
2021/08/14 02:08:40;;;;;;;3.80;2.22;;;22.20;60.50;;;;;;5114758;28;20536;-67
2021/08/14 02:11:36;;;;;;;4.85;2.30;;;22.20;60.50;;;;;;5115337;28;20175;-67
2021/08/14 02:14:02;;;;;;;4.28;2.60;;;22.20;60.60;;;;;;5107320;28;20687;-67
2021/08/14 02:16:29;;;;;;;3.80;1.92;;;22.20;60.50;;;;;;5114707;28;20177;-66
2021/08/14 02:18:55;;;;;;;3.10;2.55;;;22.20;61.40;;;;;;5115146;28;20197;-66
2021/08/14 02:21:20;;;;;;;2.70;2.20;;;22.20;60.50;;;;;;5114138;28;20182;-65
2021/08/14 02:23:46;;;;;;;3.13;2.17;;;22.20;60.50;;;;;;5114745;28;20220;-65
2021/08/14 02:26:11;;;;;;;4.60;2.47;;;22.20;60.50;;;;;;5114892;28;20267;-65
2021/08/14 02:28:37;;;;;;;4.07;2.45;;;22.20;60.50;;;;;;5113944;28;20264;-66
2021/08/14 02:31:03;;;;;;;4.50;2.47;;;22.20;60.60;;;;;;5115001;28;20165;-66
2021/08/14 02:33:30;;;;;;;3.40;2.10;;;22.20;60.60;;;;;;5113938;28;20232;-66
2021/08/14 02:35:55;;;;;;;4.28;2.50;;;22.20;60.60;;;;;;5114863;28;20181;-66
2021/08/14 02:38:21;;;;;;;4.47;2.75;;;22.20;60.80;;;;;;5114485;28;20173;-69
2021/08/14 02:40:47;;;;;;;4.40;2.70;;;22.20;60.80;;;;;;5114039;28;20681;-68
2021/08/14 02:43:13;;;;;;;4.50;2.88;;;22.10;60.60;;;;;;5114435;28;20568;-69
2021/08/14 02:45:39;;;;;;;3.33;2.85;;;22.10;60.60;;;;;;5114263;28;20181;-69
2021/08/14 02:48:04;;;;;;;3.38;2.38;;;22.10;60.60;;;;;;5113690;28;20177;-69
2021/08/14 02:50:30;;;;;;;3.85;2.80;;;22.10;60.70;;;;;;5114069;28;20201;-67
2021/08/14 02:52:56;;;;;;;5.35;2.60;;;22.10;60.70;;;;;;5114331;28;20287;-68
2021/08/14 02:55:21;;;;;;;5.32;2.55;;;22.20;60.70;;;;;;5113562;28;20248;-69
2021/08/14 02:57:47;;;;;;;4.20;2.97;;;22.10;60.70;;;;;;5114239;28;20293;-68
2021/08/14 03:00:13;;;;;;;4.38;2.90;;;22.10;61.60;;;;;;5114406;28;20183;-68
2021/08/14 03:02:41;;;;;;;4.43;2.85;;;22.10;60.70;;;;;;5113061;28;20722;-68
2021/08/14 03:05:07;;;;;;;5.93;3.10;;;22.10;60.70;;;;;;5114122;28;20313;-67
2021/08/14 03:07:33;;;;;;;3.42;2.58;;;22.10;60.80;;;;;;5113708;28;20185;-67
2021/08/14 03:09:59;;;;;;;4.65;3.00;;;22.10;60.70;;;;;;5112902;28;20234;-67
2021/08/14 03:12:24;;;;;;;4.30;3.30;;;22.10;60.80;;;;;;5113542;28;20212;-67
2021/08/14 03:14:50;;;;;;;2.85;2.55;;;22.10;60.80;;;;;;5114188;28;20540;-68
2021/08/14 03:17:15;;;;;;;4.00;3.17;;;22.10;60.80;;;;;;5113206;28;20192;-68
2021/08/14 03:19:41;;;;;;;4.15;2.88;;;22.10;60.90;;;;;;5113696;28;20188;-67
2021/08/14 03:22:07;;;;;;;2.80;2.58;;;22.10;60.90;;;;;;5113773;28;20229;-67
2021/08/14 03:24:32;;;;;;;2.67;2.33;;;22.10;60.90;;;;;;5112708;28;20169;-67
2021/08/14 03:26:58;;;;;;;3.75;2.92;;;22.00;60.80;;;;;;5113677;28;20169;-68
2021/08/14 03:29:23;;;;;;;4.97;2.83;;;22.00;60.90;;;;;;5113377;28;20202;-67
2021/08/14 03:31:49;;;;;;;4.68;2.85;;;22.00;60.80;;;;;;5113119;28;20296;-67
2021/08/14 03:34:14;;;;;;;3.88;3.17;;;22.10;60.90;;;;;;5113669;28;20561;-67
2021/08/14 03:36:40;;;;;;;3.63;3.10;;;22.00;60.90;;;;;;5113425;28;20188;-68
2021/08/14 03:39:05;;;;;;;5.85;2.70;;;22.00;60.90;;;;;;5112876;28;20192;-68
2021/08/14 03:41:31;;;;;;;4.72;2.70;;;22.00;60.90;;;;;;5113065;28;20268;-68
2021/08/14 03:43:56;;;;;;;3.47;2.67;;;22.00;60.90;;;;;;5112916;28;20189;-68
2021/08/14 03:46:22;;;;;;;3.22;2.58;;;22.00;60.90;;;;;;5112893;28;20177;-68
2021/08/14 03:48:47;;;;;;;5.88;2.80;;;22.00;60.80;;;;;;5113245;28;20577;-67
2021/08/14 03:51:13;;;;;;;6.05;3.08;;;22.00;60.90;;;;;;5112563;28;20177;-68
2021/08/14 03:53:38;;;;;;;4.55;3.20;;;22.00;60.90;;;;;;5112882;28;20209;-67
2021/08/14 03:56:04;;;;;;;8.05;2.92;;;22.00;61.00;;;;;;5112864;28;20172;-67
2021/08/14 03:58:34;;;;;;;3.53;2.63;;;22.00;60.90;;;;;;5112152;28;20169;-68
2021/08/14 04:01:00;;;;;;;4.05;2.83;;;22.00;60.90;;;;;;5113235;28;20180;-68
2021/08/14 04:03:25;;;;;;;3.50;2.95;;;22.00;61.00;;;;;;5112714;28;20522;-68
2021/08/14 04:05:51;;;;;;;3.80;3.03;;;22.00;60.90;;;;;;5112156;28;20643;-67
2021/08/14 04:08:20;;;;;;;4.25;2.92;;;22.00;60.90;;;;;;5113020;28;20169;-67
2021/08/14 04:10:45;;;;;;;3.65;2.70;;;22.00;60.80;;;;;;5112832;28;20184;-67
2021/08/14 04:13:11;;;;;;;4.20;2.90;;;21.90;60.80;;;;;;5112238;28;20694;-68
2021/08/14 04:15:36;;;;;;;5.20;3.00;;;21.90;60.80;;;;;;5112403;28;20639;-67
2021/08/14 04:18:02;;;;;;;3.00;2.70;;;21.90;60.90;;;;;;5112938;28;20173;-67
2021/08/14 04:20:27;;;;;;;4.32;2.88;;;21.90;60.90;;;;;;5111764;28;20165;-68
2021/08/14 04:22:53;;;;;;;4.43;3.10;;;21.90;60.80;;;;;;5111751;28;20220;-67
2021/08/14 04:25:18;;;;;;;4.35;2.78;;;21.90;60.80;;;;;;5112610;28;20169;-67
2021/08/14 04:27:44;;;;;;;4.60;2.60;;;21.90;60.80;;;;;;5111824;28;20218;-66
2021/08/14 04:30:10;;;;;;;5.47;3.05;;;21.90;60.80;;;;;;5112759;28;20161;-67
2021/08/14 04:32:36;;;;;;;3.50;2.88;;;21.90;61.60;;;;;;5112111;28;20225;-67
2021/08/14 04:35:04;;;;;;;4.32;2.67;;;21.90;60.80;;;;;;5111884;28;20181;-67
2021/08/14 04:37:29;;;;;;;3.88;2.75;;;21.90;60.80;;;;;;5112236;28;20184;-68
2021/08/14 04:39:55;;;;;;;3.40;2.63;;;21.90;60.80;;;;;;5112540;28;20173;-68
2021/08/14 04:42:20;;;;;;;3.90;2.90;;;21.90;60.80;;;;;;5111737;28;20180;-68
2021/08/14 04:44:46;;;;;;;3.67;2.97;;;21.90;60.80;;;;;;5112613;28;20192;-68
2021/08/14 04:47:11;;;;;;;4.28;2.75;;;21.90;60.80;;;;;;5111630;28;20529;-67
2021/08/14 04:49:37;;;;;;;3.28;2.88;;;21.90;60.80;;;;;;5112158;28;20166;-67
2021/08/14 04:52:03;;;;;;;2.95;2.42;;;21.90;60.80;;;;;;5112329;28;20201;-67
2021/08/14 04:54:28;;;;;;;4.38;3.03;;;21.90;60.80;;;;;;5111293;28;20169;-68
2021/08/14 04:56:54;;;;;;;3.40;2.90;;;21.90;60.80;;;;;;5112187;28;20181;-67
2021/08/14 04:59:19;;;;;;;3.10;2.60;;;21.90;60.80;;;;;;5112387;28;20646;-67
2021/08/14 05:01:45;;;;;;;3.28;2.60;;;21.90;60.80;;;;;;5111581;28;20207;-67
2021/08/14 05:04:10;;;;;;;4.53;3.03;;;21.90;60.60;;;;;;5112293;28;20252;-67
2021/08/14 05:06:39;;;;;;;4.97;2.92;;;21.90;60.60;;;;;;5111875;28;20203;-68
2021/08/14 05:09:05;;;;;;;3.53;2.58;;;21.90;60.70;;;;;;5111512;28;20647;-67
2021/08/14 05:11:30;;;;;;;4.32;2.88;;;21.90;60.80;;;;;;5112092;28;20188;-67
2021/08/14 05:13:56;;;;;;;4.03;2.60;;;21.90;60.80;;;;;;5112312;28;20169;-67
2021/08/14 05:16:24;;;;;;;4.30;2.15;;;21.90;60.80;;;;;;5111319;28;20172;-67
2021/08/14 05:18:50;;;;;;;3.03;2.42;;;21.90;60.80;;;;;;5112075;28;20256;-67
2021/08/14 05:21:16;;;;;;;3.33;2.63;;;21.90;60.80;;;;;;5111952;28;20754;-66
2021/08/14 05:23:41;;;;;;;4.38;2.80;;;21.90;60.80;;;;;;5111322;28;20328;-66
2021/08/14 05:26:07;;;;;;;4.13;2.95;;;21.90;60.90;;;;;;5112149;28;20226;-66
2021/08/14 05:28:32;;;;;;;3.90;3.00;;;21.90;60.80;;;;;;5111845;28;20176;-66
2021/08/14 05:30:58;;;;;;;5.53;3.15;;;21.90;60.80;;;;;;5111325;28;20174;-67
2021/08/14 05:33:24;;;;;;;3.97;2.67;;;21.90;60.80;;;;;;5112247;28;20213;-67
2021/08/14 05:35:49;;;;;;;3.25;2.65;;;21.90;60.60;;;;;;5115818;28;20632;-67
2021/08/14 05:38:15;;;;;;;3.78;2.97;;;21.90;60.70;;;;;;5114896;28;20536;-67
2021/08/14 05:40:40;;;;;;;2.83;2.20;;;21.90;60.60;;;;;;5115622;28;20192;-68
2021/08/14 05:43:06;;;;;;;2.78;2.53;;;21.90;60.50;;;;;;5115724;28;20268;-67
2021/08/14 05:45:31;;;;;;;3.70;2.70;;;21.90;60.60;;;;;;5114793;28;20283;-68
2021/08/14 05:47:57;;;;;;;3.88;2.47;;;21.90;60.80;;;;;;5115733;28;20184;-67
2021/08/14 05:50:23;;;;;;;3.55;2.42;;;21.90;60.60;;;;;;5115288;28;20218;-67
2021/08/14 05:52:48;;;;;;;4.15;3.00;;;21.90;60.60;;;;;;5115148;28;20220;-67
2021/08/14 05:55:14;;;;;;;4.72;2.55;;;21.90;60.60;;;;;;5115515;28;20623;-67
2021/08/14 05:57:40;;;;;;;4.63;3.05;;;21.90;60.60;;;;;;5096281;28;20789;-67
2021/08/14 06:00:05;;;;;;;3.83;2.72;;;22.00;60.70;;;;;;5115647;28;20636;-66
2021/08/14 06:02:31;;;;;;;3.78;2.72;;;21.90;60.60;;;;;;5114994;28;20635;-66
2021/08/14 06:04:57;;;;;;;4.05;2.90;;;21.90;60.60;;;;;;5096301;28;20181;-67
2021/08/14 06:07:23;;;;;;;3.13;2.35;;;22.00;60.70;;;;;;5114828;28;20661;-68
2021/08/14 06:09:48;;;;;;;3.08;2.22;;;22.00;60.70;;;;;;5114918;28;20509;-67
2021/08/14 06:12:14;;;;;;;3.80;2.78;;;22.00;60.60;;;;;;5096107;28;20221;-68
2021/08/14 06:14:39;;;;;;;2.55;2.33;;;22.00;60.60;;;;;;5114889;28;20165;-67
2021/08/14 06:17:05;;;;;;;3.15;2.65;;;22.00;60.60;;;;;;5115125;28;20177;-68
2021/08/14 06:19:31;;;;;;;3.53;2.70;;;22.00;60.60;;;;;;5114347;28;20515;-67
2021/08/14 06:21:57;;;;;;;3.35;2.67;;;22.00;60.60;;;;;;5114596;28;20181;-66
2021/08/14 06:24:22;;;;;;;3.15;2.47;;;22.00;60.60;;;;;;5114724;28;20180;-66
2021/08/14 06:26:48;;;;;;;3.80;2.35;;;22.00;60.60;;;;;;5114149;28;20172;-67
2021/08/14 06:29:13;;;;;;;3.78;2.88;;;22.00;60.50;;;;;;5114628;28;20195;-67
2021/08/14 06:31:39;;;;;;;3.17;2.28;;;22.00;60.60;;;;;;5114114;28;20503;-67
2021/08/14 06:34:04;;;;;;;3.40;2.40;;;22.00;60.50;;;;;;5113774;28;20612;-67
2021/08/14 06:36:30;;;;;;;3.85;2.58;;;22.10;60.60;;;;;;5114076;28;20177;-68
2021/08/14 06:38:56;;;;;;;3.58;2.40;;;22.10;60.60;;;;;;5114543;28;20172;-67
2021/08/14 06:41:22;;;;;;;3.95;2.75;;;22.10;60.60;;;;;;5113684;28;20221;-68
2021/08/14 06:43:47;;;;;;;2.85;2.33;;;22.10;60.60;;;;;;5114416;28;20613;-66
2021/08/14 06:46:13;;;;;;;3.58;2.58;;;22.10;60.50;;;;;;5113542;28;20181;-67
2021/08/14 06:48:38;;;;;;;3.05;2.63;;;22.10;60.50;;;;;;5113553;28;20192;-66
2021/08/14 06:51:04;;;;;;;4.10;2.78;;;22.10;60.50;;;;;;5114608;28;20249;-67
2021/08/14 06:53:29;;;;;;;4.75;2.92;;;22.10;60.50;;;;;;5114196;28;20216;-66
2021/08/14 06:55:55;;;;;;;5.07;2.83;;;22.20;60.50;;;;;;5113705;28;20314;-66
2021/08/14 06:58:20;;;;;;;5.25;2.47;;;22.20;60.60;;;;;;5114383;28;20183;-66
2021/08/14 07:00:46;;;;;;;5.50;2.67;;;22.10;60.50;;;;;;5113399;28;20473;-67
2021/08/14 07:03:11;;;;;;;4.00;2.75;;;22.20;60.50;;;;;;5114367;28;20173;-67
2021/08/14 07:05:42;;;;;;;5.05;3.20;;;22.20;60.60;;;;;;5113881;28;20176;-66
2021/08/14 07:08:08;;;;;;;4.70;2.92;;;22.20;60.50;;;;;;5113391;28;20661;-67
2021/08/14 07:10:33;;;;;;;3.83;2.50;;;22.20;60.50;;;;;;5114055;28;20193;-67
2021/08/14 07:12:59;;;;;;;5.47;3.55;;;22.20;60.50;;;;;;5114173;28;20212;-67
2021/08/14 07:15:24;;;;;;;4.65;2.40;;;22.20;61.40;;;;;;5112949;28;20169;-67
2021/08/14 07:17:50;;;;;;;5.03;2.92;;;22.20;60.50;;;;;;5113973;28;20183;-66
2021/08/14 07:20:16;;;;;;;2.90;2.40;;;22.20;60.50;;;;;;5113812;28;20180;-66
2021/08/14 07:22:41;;;;;;;4.38;2.78;;;22.20;60.50;;;;;;5113338;28;20228;-67
2021/08/14 07:25:07;;;;;;;4.97;2.78;;;22.20;60.50;;;;;;5114046;28;20168;-66
2021/08/14 07:27:33;;;;;;;3.22;2.55;;;22.30;60.50;;;;;;5113360;28;20583;-67
2021/08/14 07:29:58;;;;;;;7.18;2.80;;;22.30;60.60;;;;;;5113044;28;20176;-67
2021/08/14 07:32:24;;;;;;;3.35;2.85;;;22.30;60.60;;;;;;5113295;28;20196;-65
2021/08/14 07:34:49;;;;;;;3.83;2.40;;;22.30;60.80;;;;;;5113388;28;20192;-66
2021/08/14 07:37:15;;;;;;;3.95;2.70;;;22.40;60.70;;;;;;5112766;28;20501;-67
2021/08/14 07:39:40;;;;;;;7.28;3.20;;;22.40;60.70;;;;;;5113328;28;20174;-66
2021/08/14 07:42:06;;;;;;;4.15;2.70;;;22.40;60.70;;;;;;5113293;28;20173;-67
2021/08/14 07:44:31;;;;;;;5.70;2.92;;;22.40;60.60;;;;;;5112674;27;21242;-66
2021/08/14 07:46:57;;;;;;;4.82;2.90;;;22.40;60.60;;;;;;5122063;27;20173;-66
2021/08/14 07:49:22;;;;;;;4.13;2.72;;;22.40;60.60;;;;;;5120880;27;20623;-66
2021/08/14 07:51:48;;;;;;;4.57;2.63;;;22.40;60.70;;;;;;5133264;27;20180;-66
2021/08/14 07:54:13;;;;;;;4.30;2.95;;;22.40;60.70;;;;;;5120620;27;20259;-66
2021/08/14 07:56:39;;;;;;;3.97;2.85;;;22.40;60.70;;;;;;5112967;28;20177;-66
2021/08/14 07:59:04;;;;;;;4.93;3.15;;;22.50;60.70;;;;;;5124039;27;20180;-66
2021/08/14 08:01:30;;;;;;;4.82;2.70;;;22.50;60.70;;;;;;5130635;27;20226;-66
2021/08/14 08:03:55;;;;;;;5.63;2.72;;;22.50;60.70;;;;;;5112945;28;20702;-66
2021/08/14 08:06:21;;;;;;;4.72;3.00;;;22.50;60.70;;;;;;5112137;28;20173;-67
2021/08/14 08:08:46;;;;;;;4.88;2.90;;;22.50;60.70;;;;;;5113141;28;20211;-68
2021/08/14 08:11:12;;;;;;;4.18;2.63;;;22.50;60.70;;;;;;5112311;28;20176;-67
2021/08/14 08:13:37;;;;;;;6.40;3.05;;;22.50;60.70;;;;;;5111702;28;20228;-68
2021/08/14 08:16:03;;;;;;;3.90;3.25;;;22.60;60.80;;;;;;5112874;28;20250;-67
2021/08/14 08:18:31;;;;;;;5.25;3.00;;;22.60;60.80;;;;;;5113590;27;20180;-67
2021/08/14 08:20:59;;;;;;;4.10;3.08;;;22.60;60.80;;;;;;5133305;27;20172;-67
2021/08/14 08:23:25;;;;;;;5.22;3.20;;;22.60;60.80;;;;;;5132823;27;20726;-67
2021/08/14 08:25:50;;;;;;;4.72;2.90;;;22.60;60.80;;;;;;5132648;27;20241;-66
2021/08/14 08:28:23;;;;;;;5.55;3.22;;;22.60;60.80;;;;;;5133382;27;20180;-67
2021/08/14 08:30:49;;;;;;;5.70;3.13;;;22.70;60.90;;;;;;5133152;27;20200;-67
2021/08/14 08:33:14;;;;;;;5.93;3.55;;;22.70;60.90;;;;;;5132172;27;20241;-67
2021/08/14 08:35:40;;;;;;;6.90;3.22;;;22.70;60.90;;;;;;5132873;27;20195;-68
2021/08/14 08:38:05;;;;;;;7.05;3.50;;;22.70;60.90;;;;;;5132887;27;20172;-67
2021/08/14 08:40:37;;;;;;;7.03;3.47;;;22.70;61.00;;;;;;5132112;27;20164;-67
2021/08/14 08:43:03;;;;;;;7.38;3.88;;;22.70;60.90;;;;;;5132879;27;20180;-67
2021/08/14 08:45:28;;;;;;;6.85;3.33;;;22.80;61.00;;;;;;5132756;27;20641;-66
2021/08/14 08:47:54;;;;;;;9.88;3.35;;;22.80;61.10;;;;;;5132200;28;20172;-66
2021/08/14 08:50:19;;;;;;;6.13;3.20;;;22.80;61.10;;;;;;5097807;28;20622;-66
2021/08/14 08:52:45;;;;;;;4.80;3.15;;;22.80;61.20;;;;;;5111566;28;20216;-66
2021/08/14 08:55:12;;;;;;;8.13;3.75;;;22.90;61.20;;;;;;5111835;28;20165;-67
2021/08/14 08:57:38;;;;;;;5.00;2.97;;;22.90;61.20;;;;;;5112160;28;20264;-67
2021/08/14 09:00:04;;;;;;;4.82;3.20;;;22.90;61.20;;;;;;5112312;28;20310;-68
2021/08/14 09:02:33;;;;;;;6.25;3.15;;;22.90;61.30;;;;;;5111080;28;20184;-68
2021/08/14 09:05:19;;;;;;;5.95;2.92;;;22.90;61.30;;;;;;5112318;28;20563;-68
2021/08/14 09:07:45;;;;;;;6.80;3.33;;;23.00;61.40;;;;;;5111403;28;20177;-68
2021/08/14 09:10:21;;;;;;;6.13;3.85;;;23.00;61.40;;;;;;5116071;28;20298;-67
2021/08/14 09:12:47;;;;;;;6.57;3.40;;;23.00;61.40;;;;;;5116174;28;20212;-68
2021/08/14 09:15:19;;;;;;;5.47;3.38;;;23.00;61.40;;;;;;5115752;28;20260;-67
2021/08/14 09:17:45;;;;;;;7.18;3.30;;;23.00;61.40;;;;;;5116267;28;20168;-66
2021/08/14 09:20:12;;;;;;;8.18;3.85;;;23.00;61.30;;;;;;5116712;28;20225;-65
2021/08/14 09:22:38;;;;;;;7.45;3.53;;;23.10;61.30;;;;;;5114750;28;20212;-65
2021/08/14 09:25:17;;;;;;;5.13;2.92;;;23.00;61.30;;;;;;5115958;28;20263;-65
2021/08/14 09:28:00;;;;;;;7.43;4.30;;;23.10;61.30;;;;;;5115517;28;20541;-66
2021/08/14 09:31:02;;;;;;;5.72;3.13;;;23.10;61.20;;;;;;5114918;28;20184;-67
2021/08/14 09:33:32;;;;;;;6.95;3.80;;;23.10;61.20;;;;;;5032532;28;20211;-68
2021/08/14 09:36:02;;;;;;;6.57;3.90;;;23.10;61.20;;;;;;5100407;28;20543;-68
2021/08/14 09:38:43;;;;;;;5.68;3.60;;;23.10;61.20;;;;;;5115605;28;20183;-68
2021/08/14 09:41:14;;;;;;;5.50;3.47;;;23.20;61.20;;;;;;5115935;28;20252;-68
2021/08/14 09:43:40;;;;;;;6.90;3.40;;;23.20;61.20;;;;;;5114822;28;20185;-67
2021/08/14 09:46:06;;;;;;;7.63;3.55;;;23.20;61.20;;;;;;5115649;28;20180;-67
2021/08/14 09:48:31;;;;;;;8.10;3.72;;;23.10;61.30;;;;;;5115390;28;20173;-66
2021/08/14 09:50:57;;;;;;;8.25;4.50;;;23.20;61.40;;;;;;5114942;28;20180;-67
2021/08/14 09:53:23;;;;;;;8.98;3.92;;;23.20;61.50;;;;;;5123401;27;20211;-66
2021/08/14 09:55:52;;;;;;;8.88;3.55;;;23.20;61.50;;;;;;5132291;27;20200;-66
2021/08/14 09:58:22;;;;;;;7.75;3.95;;;23.20;61.40;;;;;;5100011;27;20222;-65
2021/08/14 10:00:49;;;;;;;7.03;3.88;;;23.30;61.60;;;;;;5123438;27;20184;-65
2021/08/14 10:03:15;;;;;;;6.40;3.55;;;23.30;61.60;;;;;;5123939;27;20635;-66
2021/08/14 10:05:41;;;;;;;7.55;3.40;;;23.40;61.70;;;;;;5124264;27;20299;-64
2021/08/14 10:08:07;;;;;;;6.30;3.85;;;23.40;61.70;;;;;;5125884;27;20663;-66
2021/08/14 10:10:32;;;;;;;7.30;3.80;;;23.40;61.80;;;;;;5088057;27;20178;-65
2021/08/14 10:12:58;;;;;;;6.32;3.40;;;23.40;61.70;;;;;;5124482;27;20204;-65
2021/08/14 10:15:24;;;;;;;7.75;3.92;;;23.40;61.80;;;;;;5124497;27;20688;-65
2021/08/14 10:17:49;;;;;;;5.72;3.70;;;23.40;61.70;;;;;;5123834;27;20233;-64
2021/08/14 10:20:15;;;;;;;6.60;3.45;;;23.40;61.70;;;;;;5124441;27;20267;-65
2021/08/14 10:22:41;;;;;;;5.18;3.25;;;23.40;61.70;;;;;;5125231;27;20224;-65
2021/08/14 10:25:06;;;;;;;6.95;3.72;;;23.40;61.70;;;;;;5104925;27;20215;-64
2021/08/14 10:27:55;;;;;;;4.25;3.00;;;23.50;61.70;;;;;;5106451;27;20177;-65
2021/08/14 10:30:43;;;;;;;7.22;3.97;;;23.50;61.70;;;;;;5124061;27;20229;-65
2021/08/14 10:33:28;;;;;;;6.30;3.72;;;23.50;61.60;;;;;;5113714;28;20329;-66
2021/08/14 10:35:58;;;;;;;6.63;3.67;;;23.50;61.60;;;;;;5114234;28;20537;-66
2021/08/14 10:38:57;;;;;;;6.10;4.00;;;23.50;61.60;;;;;;5114537;28;20181;-65
2021/08/14 10:41:39;;;;;;;6.35;3.47;;;23.50;61.60;;;;;;5080335;28;20189;-66
2021/08/14 10:44:05;;;;;;;6.82;3.50;;;23.50;61.60;;;;;;5114661;28;20208;-65
2021/08/14 10:46:51;;;;;;;5.68;3.40;;;23.50;61.60;;;;;;5114678;27;20177;-65
2021/08/14 10:49:32;;;;;;;5.15;3.40;;;23.60;61.70;;;;;;5124491;27;20168;-66
2021/08/14 10:52:01;;;;;;;5.53;3.53;;;23.50;61.60;;;;;;5124969;27;20214;-66
2021/08/14 10:54:30;;;;;;;6.40;3.92;;;23.60;61.70;;;;;;5121500;27;20173;-67
2021/08/14 10:57:01;;;;;;;5.43;3.45;;;23.60;61.60;;;;;;5124028;27;20166;-67
2021/08/14 10:59:39;;;;;;;5.72;3.72;;;23.60;61.60;;;;;;5122887;27;20169;-66
2021/08/14 11:02:10;;;;;;;5.72;3.58;;;23.60;61.60;;;;;;5121913;27;20168;-66
2021/08/14 11:04:51;;;;;;;6.18;3.90;;;23.60;61.70;;;;;;5123361;27;20177;-66
2021/08/14 11:07:17;;;;;;;6.05;3.97;;;23.60;61.60;;;;;;5123410;27;20224;-67
2021/08/14 11:10:03;;;;;;;6.93;3.88;;;23.60;61.60;;;;;;5122443;27;20618;-67
2021/08/14 11:12:34;;;;;;;8.95;4.53;;;23.70;61.60;;;;;;5107625;27;20723;-65
2021/08/14 11:15:14;;;;;;;10.40;4.53;;;23.70;61.60;;;;;;5123498;27;20639;-66
2021/08/14 11:17:40;;;;;;;12.43;4.22;;;23.70;61.50;;;;;;5115865;27;20172;-66
2021/08/14 11:20:30;;;;;;;7.95;4.15;;;23.70;61.50;;;;;;5114143;28;20203;-66
2021/08/14 11:22:59;;;;;;;4.97;3.95;;;23.70;61.30;;;;;;5112522;28;20225;-66
2021/08/14 11:25:25;;;;;;;6.90;4.15;;;23.70;61.30;;;;;;5113681;28;20205;-66
2021/08/14 11:27:59;;;;;;;8.55;4.40;;;23.80;61.30;;;;;;5113620;28;20169;-65
2021/08/14 11:30:26;;;;;;;6.05;4.05;;;23.80;61.20;;;;;;5113136;28;20181;-67
2021/08/14 11:32:52;;;;;;;6.65;3.83;;;23.80;61.20;;;;;;5113271;28;20455;-68
2021/08/14 11:35:20;;;;;;;5.13;3.90;;;23.80;61.10;;;;;;5112907;28;20252;-67
2021/08/14 11:37:57;;;;;;;7.35;3.97;;;23.90;61.30;;;;;;5113607;28;20230;-68
2021/08/14 11:40:27;;;;;;;4.75;3.70;;;23.80;61.10;;;;;;5113242;28;20202;-66
2021/08/14 11:42:54;;;;;;;5.25;3.65;;;23.90;61.50;;;;;;5112694;28;20177;-66
2021/08/14 11:45:20;;;;;;;5.68;4.22;;;23.90;61.10;;;;;;5113559;28;20173;-67
2021/08/14 11:47:45;;;;;;;5.18;3.90;;;23.90;61.00;;;;;;5113454;28;20176;-66
2021/08/14 11:50:11;;;;;;;5.32;3.88;;;23.90;61.10;;;;;;5112728;28;20363;-66
2021/08/14 11:52:36;;;;;;;7.45;4.00;;;23.90;61.20;;;;;;5114605;27;20348;-66
2021/08/14 11:55:09;;;;;;;6.30;4.30;;;24.00;61.20;;;;;;5133695;27;20168;-66
2021/08/14 11:57:39;;;;;;;4.85;3.88;;;24.00;61.10;;;;;;5132832;27;20180;-66
2021/08/14 12:00:27;;;;;;;5.80;4.00;;;24.00;61.20;;;;;;5133649;27;20247;-68
2021/08/14 12:03:21;;;;;;;7.82;4.13;;;23.90;61.20;;;;;;5133600;27;20271;-66
2021/08/14 12:05:47;;;;;;;9.65;4.00;;;23.90;61.20;;;;;;5133596;27;20211;-65
2021/08/14 12:08:32;;;;;;;6.53;4.00;;;23.90;61.20;;;;;;5133657;27;20186;-66
2021/08/14 12:11:02;;;;;;;7.55;4.22;;;23.90;61.20;;;;;;5132678;27;20642;-67
2021/08/14 12:13:28;;;;;;;7.07;3.80;;;24.00;61.20;;;;;;5133020;27;20212;-66
2021/08/14 12:16:17;;;;;;;5.53;3.58;;;24.00;61.00;;;;;;5133191;27;20244;-66
2021/08/14 12:18:44;;;;;;;5.25;3.63;;;24.00;61.10;;;;;;5116281;27;20169;-66
2021/08/14 12:21:10;;;;;;;6.82;3.90;;;24.00;61.10;;;;;;5132517;27;20173;-65
2021/08/14 12:23:36;;;;;;;5.03;3.72;;;23.90;61.20;;;;;;5132647;27;20252;-65
2021/08/14 12:26:24;;;;;;;7.10;4.72;;;24.00;61.20;;;;;;5132531;27;20173;-65
2021/08/14 12:29:12;;;;;;;4.40;2.85;;;24.00;61.10;;;;;;5133371;27;20173;-65
2021/08/14 12:31:50;;;;;;;5.70;4.07;;;24.00;60.90;;;;;;5132426;27;20177;-66
2021/08/14 12:34:28;;;;;;;5.43;3.53;;;23.90;61.00;;;;;;5131644;27;20188;-66
2021/08/14 12:37:14;;;;;;;6.65;3.70;;;24.00;61.00;;;;;;5112296;28;20180;-66
2021/08/14 12:39:56;;;;;;;4.97;3.70;;;24.10;60.80;;;;;;5111734;28;20173;-67
2021/08/14 12:42:26;;;;;;;5.70;3.42;;;24.20;60.60;;;;;;5111981;28;20654;-66
2021/08/14 12:44:51;;;;;;;5.65;4.05;;;24.20;60.60;;;;;;5111908;28;20231;-66
2021/08/14 12:47:43;;;;;;;7.43;4.63;;;24.10;60.50;;;;;;5111570;28;20260;-66
2021/08/14 12:50:12;;;;;;;5.80;3.60;;;24.50;60.80;;;;;;5109488;28;20192;-66
2021/08/14 12:52:38;;;;;;;5.32;3.80;;;24.20;60.50;;;;;;5111444;28;20201;-66